Data for 04/14/2014

Time Sea-Level Adjusted Pressure Absolute Pressure Temperature Relative Humidity Dew Point   
(mb) (inHg) (mb) (inHg) (C) (F) (%) (C) (F)
00:05 1027 30.33 856 25.28 -5.1 22.9 52 -13.4 7.9
00:10 1027 30.33 856 25.28 -5.1 22.8 53 -13.2 8.2
00:15 1027 30.33 856 25.28 -5.2 22.7 53 -13.4 7.9
00:20 1027 30.33 856 25.28 -5.2 22.7 53 -13.2 8.2
00:25 1027 30.33 856 25.28 -5.3 22.5 54 -13.1 8.4
00:30 1027 30.33 856 25.28 -5.4 22.3 55 -13 8.5
00:35 1027 30.33 856 25.28 -5.3 22.4 53 -13.4 7.9
00:40 1026 30.3 856 25.28 -5.4 22.3 54 -13.2 8.2
00:45 1026 30.3 856 25.28 -5.4 22.2 54 -13.3 8.1
00:50 1026 30.3 856 25.28 -5.5 22 54 -13.4 7.8
00:55 1026 30.3 855 25.25 -5.5 22.1 54 -13.4 7.9
01:00 1026 30.3 855 25.25 -5.5 22 53 -13.6 7.4
01:05 1026 30.3 855 25.25 -5.5 22.1 52 -13.8 7.1
01:10 1026 30.3 855 25.25 -5.4 22.3 50 -14.3 6.3
01:15 1026 30.3 855 25.25 -5.2 22.6 50 -14 6.8
01:20 1026 30.3 855 25.25 -5.3 22.5 51 -14 6.9
01:25 1026 30.3 855 25.25 -5.5 22.2 49 -14.5 5.8
01:30 1026 30.3 855 25.25 -5.2 22.6 48 -14.6 5.7
01:35 1026 30.3 855 25.25 -5.2 22.6 48 -14.6 5.7
01:40 1026 30.3 855 25.25 -5.4 22.4 52 -13.8 7.2
01:45 1026 30.3 855 25.25 -5.7 21.7 54 -13.6 7.6
01:50 1026 30.3 855 25.25 -5.9 21.3 55 -13.5 7.6
01:55 1026 30.3 855 25.25 -6 21.3 54 -14 6.9
02:00 1026 30.3 855 25.25 -5.9 21.4 55 -13.5 7.6
02:05 1026 30.3 855 25.25 -6 21.2 57 -13.3 8.1
02:10 1026 30.3 855 25.25 -6.4 20.5 57 -13.5 7.7
02:15 1026 30.3 855 25.25 -6.4 20.4 58 -13.4 7.9
02:20 1026 30.3 855 25.25 -6.5 20.3 58 -13.5 7.7
02:25 1026 30.3 855 25.25 -6.4 20.5 57 -13.5 7.6
02:30 1026 30.3 855 25.25 -6.3 20.6 56 -13.8 7.2
02:35 1026 30.3 855 25.25 -6.3 20.7 57 -13.4 7.9
02:40 1026 30.3 855 25.25 -6.3 20.6 57 -13.4 7.8
02:45 1026 30.3 855 25.25 -6.4 20.6 58 -13.4 7.9
02:50 1026 30.3 855 25.25 -6.3 20.6 58 -13.4 7.9
02:55 1026 30.3 855 25.25 -6.3 20.6 58 -13.4 7.9
03:00 1026 30.3 855 25.25 -6.3 20.6 56 -13.7 7.3
03:05 1025 30.27 855 25.25 -6.1 21 55 -13.6 7.4
03:10 1025 30.27 855 25.25 -6.2 20.9 56 -13.6 7.5
03:15 1025 30.27 855 25.25 -6.2 20.8 55 -14 6.8
03:20 1025 30.27 855 25.25 -6.3 20.6 57 -13.6 7.5
03:25 1025 30.27 854 25.22 -6.6 20.2 57 -13.8 7.2
03:30 1025 30.27 854 25.22 -6.5 20.2 54 -14.4 6.1
03:35 1025 30.27 854 25.22 -6.3 20.7 54 -14.2 6.4
03:40 1025 30.27 854 25.22 -6.1 21.1 55 -13.8 7.1
03:45 1025 30.27 854 25.22 -6.1 21 55 -13.8 7.2
03:50 1025 30.27 854 25.22 -6.3 20.6 57 -13.6 7.6
03:55 1025 30.27 854 25.22 -6.5 20.2 58 -13.6 7.5
04:00 1025 30.27 854 25.22 -6.7 19.9 59 -13.5 7.8
04:05 1025 30.27 854 25.22 -6.6 20.1 55 -14.2 6.5
04:10 1025 30.27 854 25.22 -6.5 20.3 56 -13.9 7
04:15 1025 30.27 854 25.22 -6.4 20.4 56 -13.9 7
04:20 1025 30.27 854 25.22 -6.5 20.2 57 -13.6 7.5
04:25 1025 30.27 854 25.22 -6.7 19.9 59 -13.6 7.6
04:30 1025 30.27 854 25.22 -6.8 19.8 56 -14.1 6.6
04:35 1025 30.27 854 25.22 -6.4 20.4 53 -14.5 5.9
04:40 1025 30.27 854 25.22 -6 21.1 53 -14.1 6.7
04:45 1025 30.27 854 25.22 -6.2 20.8 54 -14 6.8
04:50 1025 30.27 854 25.22 -6.4 20.5 55 -14.1 6.6
04:55 1025 30.27 854 25.22 -6.4 20.4 54 -14.2 6.4
05:00 1025 30.27 854 25.22 -6.6 20.1 55 -14.3 6.3
05:05 1025 30.27 854 25.22 -6.8 19.8 56 -14.3 6.3
05:10 1025 30.27 854 25.22 -6.8 19.7 56 -14.2 6.4
05:15 1025 30.27 854 25.22 -6.9 19.6 56 -14.2 6.5
05:20 1025 30.27 854 25.22 -6.9 19.6 56 -14.2 6.4
05:25 1025 30.27 854 25.22 -6.9 19.6 57 -13.9 6.9
05:30 1025 30.27 854 25.22 -7.1 19.2 59 -13.9 6.9
05:35 1025 30.27 854 25.22 -7.3 18.8 58 -14.2 6.5
05:40 1025 30.27 854 25.22 -7.2 19.1 58 -14 6.7
05:45 1025 30.27 854 25.22 -7.3 18.9 60 -13.8 7.2
05:50 1025 30.27 854 25.22 -7.4 18.6 61 -13.8 7.2
05:55 1025 30.27 854 25.22 -7.4 18.6 62 -13.5 7.8
06:00 1025 30.27 854 25.22 -7.5 18.5 63 -13.4 7.9
06:05 1025 30.27 854 25.22 -7.6 18.4 63 -13.4 7.8
06:10 1025 30.27 854 25.22 -7.4 18.6 59 -14.1 6.6
06:15 1025 30.27 854 25.22 -6.6 20.1 55 -14.1 6.5
06:20 1025 30.27 854 25.22 -6 21.2 54 -13.8 7.2
06:25 1025 30.27 854 25.22 -5.6 21.9 52 -14.1 6.7
06:30 1025 30.27 854 25.22 -5.6 21.9 54 -13.5 7.6
06:35 1025 30.27 854 25.22 -5.9 21.4 55 -13.5 7.6
06:40 1025 30.27 854 25.22 -5.6 21.9 54 -13.4 7.9
06:45 1025 30.27 854 25.22 -5.3 22.5 52 -13.6 7.5
06:50 1025 30.27 854 25.22 -4.9 23.1 52 -13.4 7.9
06:55 1025 30.27 854 25.22 -4.7 23.6 51 -13.4 7.8
07:00 1025 30.27 854 25.22 -4.3 24.3 49 -13.4 7.8
07:05 1025 30.27 854 25.22 -3.7 25.3 48 -13.3 8.1
07:10 1025 30.27 854 25.22 -3.4 26 47 -13.2 8.2
07:15 1025 30.27 854 25.22 -3.1 26.5 48 -12.7 9.2
07:20 1025 30.27 854 25.22 -3 26.5 47 -12.8 8.9
07:25 1025 30.27 854 25.22 -2.8 27 46 -13 8.6
07:30 1025 30.27 854 25.22 -2.5 27.6 45 -12.9 8.8
07:35 1025 30.27 854 25.22 -1.9 28.5 42 -13.3 8
07:40 1025 30.27 854 25.22 -1.1 30.1 41 -12.9 8.9
07:45 1025 30.27 854 25.22 -0.5 31 38 -13.3 8.1
07:50 1025 30.27 854 25.22 -0.6 31 37 -13.5 7.6
07:55 1025 30.27 854 25.22 -0.3 31.4 39 -12.8 8.9
08:00 1025 30.27 854 25.22 0.1 32.2 35 -13.6 7.6
08:05 1025 30.27 854 25.22 0.2 32.3 36 -13.3 8
08:10 1025 30.27 854 25.22 0.6 33.2 34 -13.5 7.7
08:15 1025 30.27 854 25.22 1 33.8 31 -14.2 6.4
08:20 1025 30.27 854 25.22 1.2 34.2 30 -14.6 5.8
08:25 1025 30.27 854 25.22 1.4 34.6 30 -14.4 6.1
08:30 1025 30.27 854 25.22 1.5 34.6 30 -14.5 5.9
08:35 1025 30.27 854 25.22 1.6 34.9 28 -14.9 5.2
08:40 1025 30.27 854 25.22 1.7 35.1 28 -15.1 4.7
08:45 1024 30.24 854 25.22 1.4 34.6 27 -15.8 3.6
08:50 1024 30.24 854 25.22 2.4 36.4 26 -15.3 4.4
08:55 1024 30.24 854 25.22 2.8 37 24 -15.7 3.8
09:00 1024 30.24 854 25.22 2.4 36.4 26 -15.3 4.4
09:05 1024 30.24 853 25.19 2.7 36.9 24 -15.8 3.5
09:10 1024 30.24 853 25.19 3.3 38 23 -16.2 2.9
09:15 1024 30.24 853 25.19 3.9 39 23 -15.6 3.9
09:20 1024 30.24 853 25.19 4 39.3 22 -15.7 3.8
09:25 1024 30.24 853 25.19 4.1 39.4 22 -15.7 3.8
09:30 1024 30.24 853 25.19 3.8 38.8 22 -16.1 3
09:35 1024 30.24 853 25.19 4.8 40.6 20 -16.3 2.6
09:40 1024 30.24 853 25.19 5.3 41.5 19 -16.8 1.7
09:45 1024 30.24 853 25.19 5 41 20 -16.4 2.4
09:50 1024 30.24 853 25.19 5 40.9 19 -16.6 2.1
09:55 1024 30.24 853 25.19 5.8 42.4 19 -16.1 3
10:00 1024 30.24 853 25.19 5.8 42.4 18 -16.5 2.2
10:05 1023 30.21 853 25.19 5.9 42.6 19 -16.4 2.5
10:10 1023 30.21 853 25.19 6.2 43.1 18 -16.8 1.7
10:15 1023 30.21 853 25.19 6.3 43.3 19 -15.7 3.7
10:20 1023 30.21 852 25.16 6.4 43.5 18 -16.4 2.5
10:25 1023 30.21 852 25.16 6.5 43.8 18 -16.4 2.4
10:30 1023 30.21 852 25.16 6.3 43.3 19 -15.8 3.6
10:35 1023 30.21 852 25.16 5.9 42.6 19 -16.2 2.9
10:40 1023 30.21 852 25.16 6.4 43.6 18 -16.2 2.9
10:45 1023 30.21 852 25.16 6.6 43.9 18 -16.2 2.9
10:50 1023 30.21 852 25.16 6.3 43.3 19 -15.7 3.7
10:55 1023 30.21 852 25.16 7.1 44.7 16 -17 1.4
11:00 1023 30.21 852 25.16 7.5 45.6 16 -17.1 1.2
11:05 1023 30.21 852 25.16 7.5 45.5 17 -16 3.3
11:10 1023 30.21 852 25.16 8.1 46.6 17 -15.9 3.4
11:15 1023 30.21 852 25.16 8.4 47.1 17 -15.5 4.1
11:20 1023 30.21 852 25.16 8.5 47.2 16 -15.8 3.6
11:25 1023 30.21 852 25.16 7.6 45.7 18 -15.2 4.6
11:30 1023 30.21 852 25.16 7.6 45.7 17 -15.7 3.7
11:35 1022 30.18 852 25.16 8.4 47 16 -16.1 3
11:40 1022 30.18 852 25.16 8.1 46.5 17 -15.7 3.8
11:45 1022 30.18 852 25.16 8.5 47.4 16 -16.1 3
11:50 1022 30.18 851 25.13 8.7 47.6 16 -16 3.1
11:55 1022 30.18 851 25.13 9.2 48.6 15 -16.5 2.3
12:00 1022 30.18 851 25.13 9.6 49.3 15 -16.2 2.9
12:05 1022 30.18 851 25.13 10 49.9 15 -15.8 3.6
12:10 1022 30.18 851 25.13 10 49.9 14 -16.3 2.7
12:15 1022 30.18 851 25.13 9.6 49.3 14 -16.5 2.3
12:20 1022 30.18 851 25.13 9.7 49.5 14 -16.5 2.2
12:25 1022 30.18 851 25.13 10.3 50.5 14 -15.8 3.5
12:30 1022 30.18 851 25.13 10.2 50.3 14 -16.1 3
12:35 1022 30.18 851 25.13 10 50 14 -16.4 2.6
12:40 1021 30.15 851 25.13 10 49.9 13 -17.2 1
12:45 1021 30.15 850 25.1 9.7 49.4 13 -17.7 0.2
12:50 1021 30.15 850 25.1 9.6 49.3 13 -17.3 0.9
12:55 1021 30.15 850 25.1 10.4 50.7 12 -17.5 0.4
13:00 1021 30.15 850 25.1 10.6 51 13 -17.2 1
13:05 1021 30.15 850 25.1 10.7 51.3 13 -16.9 1.6
13:10 1021 30.15 850 25.1 11.3 52.4 12 -17.1 1.3
13:15 1021 30.15 850 25.1 11 51.9 12 -17 1.4
13:20 1021 30.15 850 25.1 11.1 52 12 -16.9 1.5
13:25 1021 30.15 850 25.1 11.3 52.3 13 -16.5 2.3
13:30 1021 30.15 850 25.1 11 51.8 12 -17.3 0.8
13:35 1021 30.15 850 25.1 11.4 52.6 13 -15.9 3.3
13:40 1021 30.15 850 25.1 11.4 52.6 12 -17 1.4
13:45 1021 30.15 850 25.1 11.3 52.3 12 -16.8 1.7
13:50 1020 30.12 850 25.1 11.7 53 11 -17.6 0.4
13:55 1020 30.12 850 25.1 10.7 51.2 12 -18 -0.4
14:00 1020 30.12 849 25.07 11.1 52 11 -17.9 -0.2
14:05 1020 30.12 849 25.07 11.8 53.3 11 -17.8 -0.1
14:10 1020 30.12 849 25.07 11.9 53.4 11 -18.1 -0.5
14:15 1020 30.12 849 25.07 12 53.6 11 -18.2 -0.7
14:20 1020 30.12 849 25.07 12.1 53.8 11 -18.1 -0.5
14:25 1020 30.12 849 25.07 12.3 54.2 11 -17.9 -0.2
14:30 1020 30.12 849 25.07 12.6 54.7 10 -17.8 -0
14:35 1020 30.12 849 25.07 12.8 55.1 10 -17.9 -0.3
14:40 1020 30.12 849 25.07 12.9 55.3 10 -17.9 -0.2
14:45 1020 30.12 849 25.07 13.1 55.5 10 -18 -0.3
14:50 1019 30.09 849 25.07 13.2 55.7 10 -18.1 -0.6
14:55 1019 30.09 849 25.07 13 55.5 10 -18.1 -0.5
15:00 1019 30.09 848 25.04 12.1 53.8 10 -18.5 -1.3
15:05 1019 30.09 848 25.04 12.3 54.1 10 -18.3 -0.9
15:10 1019 30.09 848 25.04 13.2 55.8 10 -17.8 -0.1
15:15 1019 30.09 848 25.04 13.3 55.9 11 -17.2 1.1
15:20 1019 30.09 848 25.04 13.3 56 10 -17.3 0.8
15:25 1019 30.09 848 25.04 13.5 56.3 10 -17.3 0.8
15:30 1019 30.09 848 25.04 13.6 56.5 10 -17.4 0.7
15:35 1019 30.09 848 25.04 13.2 55.7 11 -16.8 1.8
15:40 1018 30.06 848 25.04 13.1 55.6 10 -17.5 0.5
15:45 1018 30.06 848 25.04 13.3 55.9 11 -16.6 2.1
15:50 1018 30.06 848 25.04 13.5 56.3 10 -17.5 0.5
15:55 1018 30.06 847 25.01 13.2 55.8 11 -17 1.4
16:00 1018 30.06 847 25.01 13.6 56.5 10 -17.1 1.1
16:05 1018 30.06 847 25.01 13.9 57 10 -17.1 1.2
16:10 1018 30.06 847 25.01 14 57.2 11 -16.5 2.4
16:15 1018 30.06 847 25.01 13.1 55.5 11 -16.9 1.5
16:20 1018 30.06 847 25.01 12.5 54.5 11 -16.9 1.5
16:25 1018 30.06 847 25.01 12.7 54.9 11 -16.9 1.6
16:30 1018 30.06 847 25.01 12.7 54.8 11 -17.2 1.1
16:35 1018 30.06 847 25.01 12.9 55.2 10 -18 -0.5
16:40 1018 30.06 847 25.01 13.2 55.7 11 -16.6 2.2
16:45 1018 30.06 847 25.01 13.7 56.6 10 -17 1.4
16:50 1018 30.06 847 25.01 13.8 56.8 10 -16.9 1.6
16:55 1017 30.03 847 25.01 13.7 56.7 11 -16.8 1.8
17:00 1017 30.03 847 25.01 13.4 56 11 -16.7 1.9
17:05 1017 30.03 847 25.01 13.5 56.3 11 -16.7 1.9
17:10 1017 30.03 846 24.98 13.5 56.4 11 -16.4 2.4
17:15 1017 30.03 846 24.98 13.6 56.5 11 -16.4 2.4
17:20 1017 30.03 846 24.98 13.3 55.9 11 -16.5 2.3
17:25 1017 30.03 846 24.98 13.2 55.7 11 -16.7 2
17:30 1017 30.03 846 24.98 13.1 55.7 11 -16.7 1.9
17:35 1017 30.03 846 24.98 13.1 55.5 11 -16.4 2.5
17:40 1017 30.03 846 24.98 13.1 55.6 11 -16.3 2.7
17:45 1017 30.03 846 24.98 13.2 55.8 12 -16.1 3.1
17:50 1017 30.03 846 24.98 13.4 56.2 11 -16.2 2.9
17:55 1017 30.03 846 24.98 13.4 56 11 -16.4 2.4
18:00 1017 30.03 846 24.98 13.3 55.9 11 -16.1 2.9
18:05 1017 30.03 846 24.98 13.3 56 11 -16.2 2.8
18:10 1017 30.03 846 24.98 13.2 55.8 12 -16 3.2
18:15 1017 30.03 846 24.98 13.1 55.6 12 -16.2 2.8
18:20 1016 30 846 24.98 13 55.4 12 -15.8 3.5
18:25 1016 30 846 24.98 12.9 55.3 12 -16 3.3
18:30 1016 30 846 24.98 12.9 55.1 13 -15.4 4.3
18:35 1016 30 845 24.95 12.8 55 13 -15 5
18:40 1016 30 845 24.95 12.6 54.6 13 -15 5
18:45 1016 30 845 24.95 12.3 54.2 13 -15.2 4.7
18:50 1016 30 845 24.95 12 53.7 14 -14.9 5.1
18:55 1016 30 845 24.95 11.7 53.1 14 -15.2 4.6
19:00 1016 30 845 24.95 11.6 52.9 14 -15 5
19:05 1016 30 845 24.95 11.4 52.6 14 -14.9 5.1
19:10 1016 30 845 24.95 11.2 52.1 15 -14.5 6
19:15 1016 30 845 24.95 10.7 51.3 16 -14.3 6.3
19:20 1016 30 845 24.95 10.3 50.5 16 -14.4 6.1
19:25 1016 30 845 24.95 10.1 50.2 17 -14.2 6.4
19:30 1016 30 845 24.95 10.1 50.2 17 -14.3 6.3
19:35 1016 30 845 24.95 9.9 49.8 17 -14.1 6.5
19:40 1016 30 845 24.95 9.5 49 17 -14.4 6.1
19:45 1016 30 845 24.95 9.2 48.5 18 -14.2 6.4
19:50 1016 30 845 24.95 9.2 48.6 17 -14.8 5.3
19:55 1016 30 845 24.95 9.3 48.7 17 -14.7 5.6
20:00 1016 30 845 24.95 8.7 47.7 20 -13 8.6
20:05 1016 30 845 24.95 7.9 46.1 21 -13.1 8.4
20:10 1016 30 845 24.95 7.8 46 20 -13.7 7.3
20:15 1016 30 845 24.95 8 46.3 21 -13.2 8.2
20:20 1016 30 845 24.95 7.6 45.7 22 -13.1 8.5
20:25 1016 30 845 24.95 7.5 45.4 22 -12.9 8.9
20:30 1016 30 845 24.95 7.3 45.2 21 -13.6 7.6
20:35 1016 30 845 24.95 8 46.3 19 -14.6 5.8
20:40 1016 30 845 24.95 8.7 47.6 18 -14.2 6.4
20:45 1016 30 845 24.95 8.7 47.7 19 -14 6.8
20:50 1016 30 845 24.95 8.6 47.5 19 -13.9 6.9
20:55 1016 30 845 24.95 8.5 47.3 19 -13.7 7.3
21:00 1016 30 845 24.95 8.3 46.9 20 -13.4 7.9
21:05 1016 30 845 24.95 8.1 46.7 21 -13.1 8.5
21:10 1016 30 845 24.95 7.9 46.1 22 -12.8 9
21:15 1016 30 845 24.95 7.3 45.1 24 -12.1 10.3
21:20 1016 30 845 24.95 6.5 43.7 24 -12.7 9.1
21:25 1016 30 845 24.95 6.9 44.5 22 -13.5 7.7
21:30 1016 30 845 24.95 7.3 45.2 21 -13.9 7
21:35 1016 30 845 24.95 7.9 46.2 20 -13.8 7.2
21:40 1016 30 845 24.95 8.1 46.5 21 -13.3 8.1
21:45 1016 30 845 24.95 8 46.3 21 -13.3 8
21:50 1016 30 845 24.95 7.8 46 21 -13.3 8.1
21:55 1016 30 845 24.95 7.9 46.1 20 -13.8 7.2
22:00 1016 30 845 24.95 8.1 46.6 19 -13.9 7
22:05 1016 30 845 24.95 8 46.5 20 -13.5 7.6
22:10 1016 30 845 24.95 7.9 46.2 20 -13.6 7.6
22:15 1016 30 845 24.95 7.8 46 20 -13.6 7.5
22:20 1016 30 845 24.95 7.8 46.1 21 -13.5 7.7
22:25 1016 30 845 24.95 7.8 46.1 21 -13.5 7.7
22:30 1016 30 845 24.95 7.9 46.1 21 -13.3 8
22:35 1016 30 845 24.95 7.9 46.2 20 -13.7 7.4
22:40 1016 30 845 24.95 8 46.4 20 -13.6 7.6
22:45 1015 29.97 845 24.95 8 46.3 20 -13.4 7.8
22:50 1015 29.97 845 24.95 7.9 46.3 20 -13.7 7.3
22:55 1015 29.97 845 24.95 8 46.3 20 -13.8 7.1
23:00 1015 29.97 845 24.95 8.3 46.9 19 -14.2 6.5
23:05 1015 29.97 845 24.95 8.6 47.5 20 -13.1 8.5
23:10 1015 29.97 845 24.95 8.3 46.9 20 -13.2 8.2
23:15 1015 29.97 845 24.95 8.1 46.6 21 -13.1 8.3
23:20 1015 29.97 845 24.95 8.2 46.7 20 -13.4 8
23:25 1015 29.97 845 24.95 8.2 46.7 20 -13.3 8.1
23:30 1015 29.97 844 24.92 8.1 46.6 20 -13.3 8
23:35 1015 29.97 844 24.92 8.1 46.5 21 -13.2 8.3
23:40 1015 29.97 844 24.92 8 46.3 21 -12.8 8.9
23:45 1015 29.97 844 24.92 7.9 46.2 21 -12.9 8.7
23:50 1015 29.97 844 24.92 7.8 46 22 -12.6 9.3
23:55 1015 29.97 844 24.92 7.7 45.9 22 -12.7 9.2
24:00 1015 29.97 844 24.92 7.7 45.8 23 -12.4 9.6